Time;durP1;ratioP1;P1;durP2;ratioP2;P2;SDS_P1;SDS_P2;PMS_P1;PMS_P2;Temp;Humidity;BMP_temperature;BMP_pressure;BME280_temperature;BME280_humidity;BME280_pressure;Samples;Min_cycle;Max_cycle;Signal;HPM_P1;HPM_P2
2022/07/15 00:01:50;;;;;;;0.50;0.30;;;;;;;20.17;70.78;98585.03;5012606;28;20049;-62
2022/07/15 00:04:36;;;;;;;0.70;0.40;;;;;;;20.10;71.24;98597.34;5011041;28;20034;-62
2022/07/15 00:07:21;;;;;;;0.88;0.30;;;;;;;20.12;71.61;98568.75;5011381;28;20060;-62
2022/07/15 00:10:18;;;;;;;0.85;0.40;;;;;;;20.22;71.85;98549.94;5011383;28;20411;-62
2022/07/15 00:13:03;;;;;;;0.90;0.47;;;;;;;20.13;71.00;98539.34;4998778;28;20054;-62
2022/07/15 00:15:48;;;;;;;1.00;0.45;;;;;;;20.05;72.20;98542.88;5011452;28;20499;-62
2022/07/15 00:18:32;;;;;;;2.78;0.50;;;;;;;19.94;71.08;98535.22;5012208;28;20110;-62
2022/07/15 00:21:17;;;;;;;1.00;0.50;;;;;;;19.82;71.95;98556.03;5010805;28;20425;-63
2022/07/15 00:24:02;;;;;;;1.45;0.70;;;;;;;19.98;70.97;98567.59;5011821;28;20112;-62
2022/07/15 00:26:47;;;;;;;1.30;0.70;;;;;;;20.01;69.26;98554.78;5021394;28;20074;-62
2022/07/15 00:29:32;;;;;;;1.27;0.40;;;;;;;20.12;69.38;98555.47;5013941;28;20057;-62
2022/07/15 00:32:17;;;;;;;1.30;0.60;;;;;;;20.15;68.20;98557.78;5011020;28;20351;-62
2022/07/15 00:35:01;;;;;;;0.55;0.32;;;;;;;20.18;67.14;98554.75;4996731;28;20038;-62
2022/07/15 00:37:46;;;;;;;1.35;0.60;;;;;;;20.19;67.49;98575.03;5024036;28;20046;-62
2022/07/15 00:40:31;;;;;;;2.25;0.60;;;;;;;20.14;66.97;98572.06;5011457;28;20071;-62
2022/07/15 00:43:17;;;;;;;1.20;0.50;;;;;;;20.24;65.65;98593.97;4991368;28;20529;-62
2022/07/15 00:46:02;;;;;;;1.50;0.50;;;;;;;20.19;66.25;98605.13;5010634;28;20037;-62
2022/07/15 00:48:49;;;;;;;1.13;0.40;;;;;;;20.20;66.18;98597.97;5011061;28;20041;-62
2022/07/15 00:51:54;;;;;;;1.98;0.60;;;;;;;20.11;65.96;98607.00;5013390;28;20331;-62
2022/07/15 00:54:39;;;;;;;3.50;0.73;;;;;;;20.04;66.52;98641.41;5010034;28;20058;-62
2022/07/15 00:57:26;;;;;;;1.60;0.70;;;;;;;19.86;68.76;98673.47;5012544;28;20049;-62
2022/07/15 01:00:12;;;;;;;0.80;0.70;;;;;;;19.75;68.60;98701.22;4999042;28;20045;-62
2022/07/15 01:02:59;;;;;;;2.05;0.57;;;;;;;19.66;68.75;98711.00;5011172;28;20042;-63
2022/07/15 01:05:46;;;;;;;3.67;0.65;;;;;;;19.60;68.91;98722.28;4997417;28;20104;-62
2022/07/15 01:08:30;;;;;;;1.10;0.60;;;;;;;19.72;68.54;98722.78;5010037;28;20042;-62
2022/07/15 01:11:15;;;;;;;0.88;0.60;;;;;;;19.69;67.90;98718.63;5011242;28;20042;-62
2022/07/15 01:14:01;;;;;;;1.85;0.80;;;;;;;19.75;68.38;98688.72;4994231;28;20045;-62
2022/07/15 01:16:46;;;;;;;1.00;0.50;;;;;;;19.64;69.08;98705.84;5012860;28;20069;-63
2022/07/15 01:19:31;;;;;;;0.95;0.70;;;;;;;19.46;71.40;98700.69;5014598;28;20066;-62
2022/07/15 01:22:16;;;;;;;2.20;0.70;;;;;;;19.07;75.06;98684.34;5001296;28;20086;-61
2022/07/15 01:25:00;;;;;;;0.63;0.50;;;;;;;18.62;79.26;98681.06;5015296;28;20049;-62
2022/07/15 01:27:47;;;;;;;6.35;0.70;;;;;;;18.37;83.84;98674.78;5000427;28;20066;-62
2022/07/15 01:30:39;;;;;;;1.95;0.60;;;;;;;18.09;88.98;98646.63;5007007;28;20096;-62
2022/07/15 01:33:26;;;;;;;1.55;0.70;;;;;;;17.91;91.38;98621.00;5013269;28;20046;-61
2022/07/15 01:36:10;;;;;;;1.67;0.80;;;;;;;17.81;93.26;98584.03;5014883;28;20045;-63
2022/07/15 01:38:57;;;;;;;1.00;0.60;;;;;;;17.76;94.89;98517.44;5014074;28;20046;-64
2022/07/15 01:41:43;;;;;;;1.35;0.60;;;;;;;17.70;97.14;98558.63;5028413;28;20144;-62
2022/07/15 01:44:32;;;;;;;1.27;0.80;;;;;;;17.42;100.00;98571.19;5015923;28;20045;-62
2022/07/15 01:47:17;;;;;;;1.48;0.93;;;;;;;17.27;100.00;98558.50;5013719;28;20045;-62
2022/07/15 01:50:03;;;;;;;1.98;0.88;;;;;;;17.33;100.00;98555.22;5028301;28;20094;-62
2022/07/15 01:53:06;;;;;;;2.58;1.20;;;;;;;17.08;100.00;98596.53;5014340;28;20057;-62
2022/07/15 01:55:51;;;;;;;1.77;0.90;;;;;;;17.00;100.00;98584.06;4999791;28;20057;-62
2022/07/15 01:58:35;;;;;;;1.60;1.10;;;;;;;17.06;100.00;98606.44;5011803;28;20038;-62
2022/07/15 02:01:20;;;;;;;2.72;1.00;;;;;;;16.93;100.00;98643.84;5013635;28;20402;-63
2022/07/15 02:04:05;;;;;;;1.58;1.00;;;;;;;16.85;100.00;98648.06;4999364;28;20042;-62
2022/07/15 02:06:50;;;;;;;1.98;1.02;;;;;;;16.83;100.00;98644.75;5027375;28;20101;-63
2022/07/15 02:09:37;;;;;;;2.55;1.17;;;;;;;16.89;100.00;98643.34;5013652;28;20061;-62
2022/07/15 02:12:22;;;;;;;2.60;1.10;;;;;;;17.07;100.00;98650.44;5027220;28;20053;-62
2022/07/15 02:15:11;;;;;;;2.45;1.08;;;;;;;17.01;100.00;98657.16;5012683;28;20056;-62
2022/07/15 02:18:01;;;;;;;2.22;1.27;;;;;;;16.94;100.00;98641.03;4994797;28;20050;-63
2022/07/15 02:20:48;;;;;;;2.55;1.35;;;;;;;16.79;100.00;98646.03;5012546;28;20038;-63
2022/07/15 02:23:33;;;;;;;2.13;1.40;;;;;;;16.84;100.00;98635.81;5027176;28;20402;-63
2022/07/15 02:26:18;;;;;;;3.47;1.58;;;;;;;16.98;100.00;98657.47;5009365;28;20418;-63
2022/07/15 02:29:03;;;;;;;2.22;1.48;;;;;;;17.05;100.00;98677.06;5005279;28;20041;-62
2022/07/15 02:31:48;;;;;;;3.63;1.52;;;;;;;16.86;100.00;98678.84;5022321;28;20049;-62
2022/07/15 02:34:32;;;;;;;3.22;1.33;;;;;;;16.79;100.00;98682.22;5012872;28;20074;-64
2022/07/15 02:37:19;;;;;;;1.70;1.40;;;;;;;16.78;100.00;98689.31;5026526;28;20124;-62
2022/07/15 02:40:10;;;;;;;2.23;1.50;;;;;;;16.89;100.00;98677.72;5027108;28;20065;-63
2022/07/15 02:42:58;;;;;;;1.67;1.40;;;;;;;16.66;100.00;98687.84;5012817;28;20520;-62
2022/07/15 02:45:44;;;;;;;2.38;1.58;;;;;;;16.70;100.00;98666.25;5012328;28;20081;-62
2022/07/15 02:48:31;;;;;;;2.42;1.70;;;;;;;16.68;100.00;98678.78;5012923;28;20037;-62
2022/07/15 02:51:17;;;;;;;4.13;1.80;;;;;;;16.51;100.00;98683.06;5000402;28;20049;-62
2022/07/15 02:54:03;;;;;;;2.92;1.90;;;;;;;16.59;100.00;98674.38;5012203;28;20503;-62
2022/07/15 02:56:50;;;;;;;3.83;1.70;;;;;;;16.57;100.00;98682.47;5013092;28;20501;-62
2022/07/15 02:59:35;;;;;;;5.10;2.45;;;;;;;16.53;100.00;98683.75;5013254;28;20045;-62
2022/07/15 03:02:20;;;;;;;3.80;1.85;;;;;;;16.48;100.00;98678.06;5026899;28;20081;-61
2022/07/15 03:05:06;;;;;;;3.22;1.85;;;;;;;16.47;100.00;98711.59;5001594;28;20053;-61
2022/07/15 03:07:52;;;;;;;4.40;2.40;;;;;;;16.41;100.00;98690.19;5025718;28;20041;-61
2022/07/15 03:10:38;;;;;;;3.75;2.28;;;;;;;16.46;100.00;98719.66;4992938;28;20043;-62
2022/07/15 03:13:25;;;;;;;3.10;2.25;;;;;;;16.54;100.00;98732.16;4980884;28;20402;-62
2022/07/15 03:16:10;;;;;;;3.35;2.25;;;;;;;16.58;100.00;98737.00;5001675;28;20216;-62
2022/07/15 03:19:00;;;;;;;2.90;1.95;;;;;;;16.55;100.00;98741.78;5025617;28;20497;-62
2022/07/15 03:21:45;;;;;;;3.42;2.15;;;;;;;16.50;100.00;98745.66;4999124;28;20056;-61
2022/07/15 03:24:30;;;;;;;3.60;2.30;;;;;;;16.56;100.00;98760.13;5008422;28;20093;-61
2022/07/15 03:27:17;;;;;;;3.28;2.10;;;;;;;16.46;100.00;98759.31;5026187;28;20067;-62
2022/07/15 03:30:02;;;;;;;4.85;1.83;;;;;;;16.41;100.00;98757.09;5012101;28;20058;-62
2022/07/15 03:32:47;;;;;;;3.75;2.08;;;;;;;16.35;100.00;98753.22;5000751;28;20550;-62
2022/07/15 03:35:33;;;;;;;3.30;2.15;;;;;;;16.38;100.00;98755.59;5024965;28;20053;-62
2022/07/15 03:38:18;;;;;;;3.58;2.50;;;;;;;16.38;100.00;98752.94;5012270;28;20046;-62
2022/07/15 03:41:03;;;;;;;4.60;2.13;;;;;;;16.44;100.00;98748.88;4998379;28;20097;-62
2022/07/15 03:43:49;;;;;;;4.18;2.63;;;;;;;16.30;100.00;98754.63;5012112;28;20042;-62
2022/07/15 03:46:36;;;;;;;4.85;2.30;;;;;;;16.36;100.00;98769.91;5011774;28;20067;-62
2022/07/15 03:49:21;;;;;;;4.47;2.50;;;;;;;16.47;100.00;98763.63;5011221;28;20050;-63
2022/07/15 03:52:06;;;;;;;3.67;2.55;;;;;;;16.32;100.00;98758.78;5011962;28;20513;-62
2022/07/15 03:54:53;;;;;;;4.28;2.17;;;;;;;16.44;100.00;98751.53;4986450;28;20406;-62
2022/07/15 03:57:38;;;;;;;4.05;2.45;;;;;;;16.45;100.00;98753.19;5012528;28;20054;-62
2022/07/15 04:00:23;;;;;;;4.20;2.50;;;;;;;16.49;100.00;98748.44;4984056;28;20101;-64
2022/07/15 04:03:08;;;;;;;5.90;2.88;;;;;;;16.38;100.00;98750.31;4999743;28;20070;-62
2022/07/15 04:05:53;;;;;;;6.18;3.00;;;;;;;16.29;100.00;98756.44;5011558;28;20125;-61
2022/07/15 04:08:38;;;;;;;5.28;3.08;;;;;;;16.39;100.00;98759.06;5012615;28;20061;-62
2022/07/15 04:11:23;;;;;;;10.50;2.97;;;;;;;16.45;100.00;98770.88;5012088;28;20084;-62
2022/07/15 04:14:13;;;;;;;4.10;2.58;;;;;;;16.53;100.00;98775.44;5013463;28;20042;-62
2022/07/15 04:16:58;;;;;;;6.78;3.53;;;;;;;16.57;100.00;98771.53;5028425;28;20037;-62
2022/07/15 04:19:50;;;;;;;4.40;2.55;;;;;;;16.55;100.00;98781.44;5004819;28;20486;-64
2022/07/15 04:22:41;;;;;;;5.22;3.20;;;;;;;16.32;100.00;98787.03;5012463;28;20398;-62
2022/07/15 04:25:26;;;;;;;3.97;3.05;;;;;;;16.41;100.00;98777.41;5024332;28;20482;-62
2022/07/15 04:28:11;;;;;;;4.22;3.15;;;;;;;16.46;100.00;98780.47;4997786;28;20038;-62
2022/07/15 04:30:56;;;;;;;4.35;3.05;;;;;;;16.51;100.00;98788.81;5011052;28;20089;-62
2022/07/15 04:33:41;;;;;;;4.78;2.78;;;;;;;16.50;100.00;98789.75;5024845;28;20087;-62
2022/07/15 04:36:26;;;;;;;3.58;2.60;;;;;;;16.50;100.00;98795.06;5010448;28;20050;-62
2022/07/15 04:39:11;;;;;;;3.92;2.88;;;;;;;16.56;100.00;98796.31;5012180;28;20100;-62
2022/07/15 04:41:56;;;;;;;3.63;3.20;;;;;;;16.62;100.00;98799.22;5017943;28;20045;-62
2022/07/15 04:44:42;;;;;;;3.85;3.28;;;;;;;16.44;100.00;98799.13;5013934;28;20538;-62
2022/07/15 04:47:28;;;;;;;5.43;2.83;;;;;;;16.56;100.00;98802.44;5010162;28;20054;-62
2022/07/15 04:53:20;;;;;;;5.40;2.55;;;;;;;16.44;100.00;98806.22;5012878;28;20045;-62
2022/07/15 04:56:07;;;;;;;4.22;2.88;;;;;;;16.44;100.00;98807.06;5024233;28;20041;-61
2022/07/15 04:58:55;;;;;;;4.72;3.15;;;;;;;16.58;100.00;98811.03;5003866;28;20045;-61
2022/07/15 05:01:40;;;;;;;4.22;3.20;;;;;;;16.80;100.00;98816.97;5006992;28;20042;-62
2022/07/15 05:04:26;;;;;;;8.45;3.80;;;;;;;16.77;100.00;98811.13;5003437;28;20070;-62
2022/07/15 05:07:12;;;;;;;5.28;3.30;;;;;;;16.76;100.00;98818.25;5023972;28;20129;-62
2022/07/15 05:09:58;;;;;;;6.03;3.50;;;;;;;16.77;100.00;98827.84;5023580;28;20046;-60
2022/07/15 05:12:43;;;;;;;5.30;3.65;;;;;;;16.71;100.00;98834.53;5015424;28;20038;-61
2022/07/15 05:15:28;;;;;;;4.63;3.42;;;;;;;16.74;100.00;98846.66;5009825;28;20038;-62
2022/07/15 05:18:12;;;;;;;4.47;3.65;;;;;;;16.88;100.00;98858.56;4994256;28;20410;-62
2022/07/15 05:20:57;;;;;;;9.63;4.13;;;;;;;16.78;100.00;98868.38;5012858;28;20053;-62
2022/07/15 05:23:45;;;;;;;9.95;3.67;;;;;;;16.90;100.00;98880.44;5011157;28;20096;-61
2022/07/15 05:26:30;;;;;;;9.40;4.47;;;;;;;16.86;100.00;98879.03;5017583;28;20129;-62
2022/07/15 05:29:15;;;;;;;6.38;3.58;;;;;;;16.94;100.00;98887.09;5008843;28;20046;-62
2022/07/15 05:32:00;;;;;;;6.80;3.90;;;;;;;16.82;100.00;98896.19;5009994;28;20136;-62
2022/07/15 05:34:47;;;;;;;4.85;3.03;;;;;;;17.06;100.00;98897.50;4988728;28;20057;-62
2022/07/15 05:37:39;;;;;;;4.75;3.22;;;;;;;16.99;100.00;98908.69;5024203;28;20065;-61
2022/07/15 05:40:25;;;;;;;9.35;4.03;;;;;;;17.08;100.00;98907.03;5009460;28;20840;-62
2022/07/15 05:43:15;;;;;;;5.97;3.83;;;;;;;17.05;100.00;98907.28;5010165;28;20042;-63
2022/07/15 05:46:00;;;;;;;5.20;3.72;;;;;;;16.94;100.00;98902.16;5023641;28;20050;-62
2022/07/15 05:48:47;;;;;;;5.30;4.05;;;;;;;17.18;100.00;98893.75;5023512;28;20049;-60
2022/07/15 05:51:33;;;;;;;5.82;3.22;;;;;;;17.30;100.00;98907.63;5010157;28;20402;-61
2022/07/15 05:54:18;;;;;;;8.18;4.43;;;;;;;17.32;98.55;98907.47;5009200;28;20507;-60
2022/07/15 05:57:03;;;;;;;6.00;4.05;;;;;;;17.25;99.06;98917.81;5023963;28;20081;-61
2022/07/15 05:59:49;;;;;;;7.65;4.93;;;;;;;17.32;98.31;98924.22;4985669;28;20076;-62
2022/07/15 06:02:35;;;;;;;7.22;4.50;;;;;;;17.24;99.90;98934.69;5013089;28;20056;-61
2022/07/15 06:05:21;;;;;;;7.95;3.80;;;;;;;17.23;98.56;98923.25;5013724;28;20052;-62
2022/07/15 06:08:13;;;;;;;4.90;3.40;;;;;;;17.29;99.40;98932.44;5012883;28;20091;-61
2022/07/15 06:11:01;;;;;;;5.82;4.43;;;;;;;17.65;95.19;98944.97;5013234;28;20449;-62
2022/07/15 06:13:47;;;;;;;16.35;4.00;;;;;;;17.96;94.12;98942.03;5031950;28;20045;-61
2022/07/15 06:16:33;;;;;;;6.18;3.75;;;;;;;18.13;93.15;98947.53;5032311;28;20045;-59
2022/07/15 06:19:18;;;;;;;4.38;3.22;;;;;;;18.25;92.42;98955.28;5024257;28;20046;-61
2022/07/15 06:22:03;;;;;;;3.72;3.08;;;;;;;19.01;88.90;98958.38;5013096;28;20077;-61
2022/07/15 06:24:48;;;;;;;3.97;3.35;;;;;;;18.83;87.67;98959.22;5012669;28;20053;-62
2022/07/15 06:27:34;;;;;;;5.07;3.22;;;;;;;18.90;89.09;98964.75;5000841;28;20042;-61
2022/07/15 06:30:19;;;;;;;4.80;3.25;;;;;;;19.26;85.03;98957.75;5013952;28;20084;-62
2022/07/15 06:33:03;;;;;;;7.88;3.72;;;;;;;20.06;83.46;98958.41;5013323;28;20066;-61
2022/07/15 06:35:48;;;;;;;5.95;3.50;;;;;;;19.97;77.71;98952.22;5012761;28;20046;-61
2022/07/15 06:38:33;;;;;;;7.22;3.67;;;;;;;20.00;76.79;98951.06;5013446;28;20053;-61
2022/07/15 06:41:18;;;;;;;4.82;2.97;;;;;;;20.34;76.38;98963.47;5026930;28;20563;-61
2022/07/15 06:44:05;;;;;;;5.47;2.75;;;;;;;20.88;74.67;98962.16;4998608;28;20361;-61
2022/07/15 06:46:56;;;;;;;5.90;2.90;;;;;;;21.69;69.96;98965.00;5013151;28;20049;-62
2022/07/15 06:49:42;;;;;;;5.50;3.28;;;;;;;21.19;68.74;98973.09;5015296;28;20042;-61
2022/07/15 06:52:27;;;;;;;4.07;2.65;;;;;;;21.41;69.21;98971.56;5012342;28;20056;-61
2022/07/15 06:55:14;;;;;;;8.15;3.28;;;;;;;21.71;66.83;98969.13;5012987;28;20139;-61
2022/07/15 06:57:58;;;;;;;3.70;3.15;;;;;;;21.58;66.84;98974.16;5026184;28;20049;-61
2022/07/15 07:00:43;;;;;;;5.40;2.97;;;;;;;21.79;66.54;98970.94;5011600;28;20046;-62
2022/07/15 07:03:28;;;;;;;4.63;2.70;;;;;;;22.40;65.67;98977.47;5012192;28;20048;-60
2022/07/15 07:06:13;;;;;;;3.58;2.47;;;;;;;22.34;62.74;98975.50;5012982;28;20041;-61
2022/07/15 07:08:58;;;;;;;3.47;2.60;;;;;;;22.24;63.86;98978.41;5013956;28;20052;-60
2022/07/15 07:11:43;;;;;;;5.93;2.83;;;;;;;21.72;64.99;98978.81;5011345;28;20049;-61
2022/07/15 07:14:28;;;;;;;5.28;2.67;;;;;;;21.41;64.44;98977.72;5012970;28;20046;-61
2022/07/15 07:17:12;;;;;;;4.95;2.67;;;;;;;20.98;66.85;98977.13;5012636;28;20038;-61
2022/07/15 07:19:57;;;;;;;4.82;2.45;;;;;;;22.37;60.43;98981.31;5012377;28;20053;-61
2022/07/15 07:22:42;;;;;;;4.22;2.10;;;;;;;22.90;57.43;98971.75;5012633;28;20045;-62
2022/07/15 07:25:26;;;;;;;3.97;2.40;;;;;;;23.52;56.62;98989.53;5012650;28;20469;-62
2022/07/15 07:28:13;;;;;;;3.47;2.20;;;;;;;23.83;54.70;98993.84;5012312;28;20088;-62
2022/07/15 07:30:58;;;;;;;4.25;2.22;;;;;;;22.89;59.14;98996.81;5012510;28;20450;-62
2022/07/15 07:33:43;;;;;;;5.65;2.60;;;;;;;23.03;58.06;99005.03;5013432;28;20046;-63
2022/07/15 07:36:27;;;;;;;4.00;2.03;;;;;;;22.81;57.09;99002.22;5012687;28;20054;-62
2022/07/15 07:39:13;;;;;;;5.40;2.83;;;;;;;23.65;54.74;99004.94;5025836;28;20538;-61
2022/07/15 07:41:58;;;;;;;3.60;2.00;;;;;;;23.79;55.66;99003.25;5012492;28;20480;-61
2022/07/15 07:44:43;;;;;;;4.00;1.80;;;;;;;23.44;51.42;99004.66;5013164;28;20057;-62
2022/07/15 07:47:28;;;;;;;5.00;2.22;;;;;;;24.63;50.18;99008.34;5012200;28;20045;-62
2022/07/15 07:50:12;;;;;;;3.05;1.70;;;;;;;25.24;47.49;99003.47;5012783;28;20058;-61
2022/07/15 07:52:57;;;;;;;4.70;1.50;;;;;;;25.37;47.40;99008.09;4999050;28;20119;-61
2022/07/15 07:55:42;;;;;;;5.30;1.77;;;;;;;24.48;48.02;99011.91;5012064;28;20387;-62
2022/07/15 07:58:26;;;;;;;3.08;1.75;;;;;;;24.07;50.34;99015.94;5013060;28;20096;-62
2022/07/15 08:01:11;;;;;;;2.85;1.63;;;;;;;25.37;47.05;99025.00;5011776;28;20116;-62
2022/07/15 08:03:55;;;;;;;3.00;1.58;;;;;;;25.69;44.85;99027.28;5012405;28;20498;-62
2022/07/15 08:06:41;;;;;;;2.38;1.20;;;;;;;25.78;44.23;99026.13;4999393;28;20036;-62
2022/07/15 08:09:26;;;;;;;2.72;1.73;;;;;;;25.67;44.18;99026.69;5025408;28;20073;-62
2022/07/15 08:12:11;;;;;;;4.75;1.42;;;;;;;25.50;43.60;99024.28;4999015;28;20045;-62
2022/07/15 08:14:56;;;;;;;3.33;1.40;;;;;;;24.71;44.77;99021.59;5024566;28;20410;-62
2022/07/15 08:17:40;;;;;;;4.13;1.48;;;;;;;25.76;44.30;99032.69;5020426;28;20052;-62
2022/07/15 08:20:25;;;;;;;3.03;1.45;;;;;;;25.73;44.61;99038.44;5017510;28;20049;-62
2022/07/15 08:23:10;;;;;;;1.60;1.00;;;;;;;26.18;42.25;99040.69;5019463;28;20049;-63
2022/07/15 08:25:55;;;;;;;2.55;1.00;;;;;;;25.27;43.16;99033.41;5005627;28;20096;-62
2022/07/15 08:28:40;;;;;;;2.70;1.17;;;;;;;25.81;44.14;99031.06;5014661;28;20474;-63
2022/07/15 08:31:24;;;;;;;2.13;1.00;;;;;;;26.13;40.42;99027.88;5010266;28;20062;-62
2022/07/15 08:34:10;;;;;;;3.00;1.15;;;;;;;25.42;44.68;99033.31;5012098;28;20462;-63
2022/07/15 08:36:54;;;;;;;3.08;1.10;;;;;;;25.81;42.75;99025.72;4996242;28;20403;-62
2022/07/15 08:39:40;;;;;;;2.42;1.20;;;;;;;25.38;43.43;99023.19;5010780;28;20078;-62
2022/07/15 08:42:25;;;;;;;2.28;1.20;;;;;;;25.80;40.12;99015.19;5010261;28;20255;-63
2022/07/15 08:45:10;;;;;;;2.25;1.10;;;;;;;25.40;40.77;99016.56;5011298;28;20096;-63
2022/07/15 08:47:59;;;;;;;2.80;1.30;;;;;;;24.80;41.56;99016.91;5012358;28;20046;-64
2022/07/15 08:50:44;;;;;;;2.65;1.00;;;;;;;24.93;43.73;99026.94;5010419;28;20042;-63
2022/07/15 08:53:30;;;;;;;3.45;0.98;;;;;;;26.05;39.73;99034.25;5011295;28;20042;-62
2022/07/15 08:56:18;;;;;;;2.35;1.00;;;;;;;26.51;39.47;99028.44;5010727;28;20037;-62
2022/07/15 08:59:07;;;;;;;1.13;0.73;;;;;;;26.34;40.06;99026.16;5010534;28;20046;-62
2022/07/15 09:01:53;;;;;;;1.20;0.85;;;;;;;27.24;40.46;99023.34;5011623;28;20414;-63
2022/07/15 09:05:15;;;;;;;2.28;0.90;;;;;;;26.67;37.89;99021.84;5012297;28;20030;-63
2022/07/15 09:08:06;;;;;;;3.45;0.77;;;;;;;26.42;39.88;99017.88;5013499;28;20107;-63
2022/07/15 09:10:52;;;;;;;;;;;;;;;26.94;37.02;99028.09;5004970;28;20050;-64
2022/07/15 09:13:40;;;;;;;3.05;0.95;;;;;;;27.36;39.75;99027.03;5020350;28;19933;-64
2022/07/15 09:16:26;;;;;;;1.70;0.85;;;;;;;26.46;41.62;99021.00;5010694;28;20129;-63
2022/07/15 09:19:11;;;;;;;1.50;0.80;;;;;;;27.60;37.89;99018.50;5011542;28;20100;-63
2022/07/15 09:22:02;;;;;;;2.30;0.85;;;;;;;28.81;34.77;99021.66;5028668;28;20049;-62
2022/07/15 09:25:01;;;;;;;4.60;1.20;;;;;;;29.38;36.72;99009.97;5010307;28;20108;-63
2022/07/15 09:27:46;;;;;;;1.63;0.70;;;;;;;28.53;32.92;99002.16;5011814;28;20069;-63
2022/07/15 09:33:43;;;;;;;1.38;0.70;;;;;;;27.06;37.95;99009.50;5015383;28;20053;-63
2022/07/15 09:36:31;;;;;;;1.85;0.95;;;;;;;26.25;35.11;99005.84;5005075;28;20398;-63
2022/07/15 09:39:17;;;;;;;2.05;0.50;;;;;;;27.25;35.52;99017.75;5013934;28;20046;-63
2022/07/15 09:42:09;;;;;;;2.78;0.70;;;;;;;29.07;34.20;99011.75;5016427;28;20050;-63
2022/07/15 09:44:54;;;;;;;2.30;0.57;;;;;;;28.90;34.47;99002.28;5019773;28;20125;-65
2022/07/15 09:47:39;;;;;;;2.20;0.80;;;;;;;29.19;33.59;99014.50;5016495;28;20072;-64
2022/07/15 09:50:42;;;;;;;4.63;0.80;;;;;;;30.43;31.21;99002.91;5019705;28;20046;-63
2022/07/15 09:53:27;;;;;;;3.42;0.55;;;;;;;30.56;30.32;99007.28;5026638;28;20054;-63
2022/07/15 09:56:14;;;;;;;3.92;0.60;;;;;;;27.02;32.42;99012.81;5022560;28;20076;-64
2022/07/15 09:59:02;;;;;;;4.22;0.68;;;;;;;27.89;32.56;99019.88;5019726;28;20112;-64
2022/07/15 10:01:47;;;;;;;4.05;0.85;;;;;;;28.35;33.60;99006.41;5013473;28;20490;-64
2022/07/15 10:04:32;;;;;;;1.50;0.50;;;;;;;29.24;31.50;99003.88;5012746;28;20072;-64
2022/07/15 10:07:18;;;;;;;1.80;0.43;;;;;;;30.83;30.81;99006.91;5014481;28;20172;-66
2022/07/15 10:10:04;;;;;;;1.45;0.60;;;;;;;28.66;31.74;99001.22;4996202;28;20042;-64
2022/07/15 10:13:10;;;;;;;3.20;0.60;;;;;;;27.77;31.78;99000.06;5012315;28;20094;-64
2022/07/15 10:16:01;;;;;;;2.03;0.70;;;;;;;27.41;32.55;99011.09;5003913;28;20042;-64
2022/07/15 10:18:59;;;;;;;7.57;1.08;;;;;;;27.28;33.76;99011.13;5013448;28;20089;-64
2022/07/15 10:21:47;;;;;;;1.23;0.60;;;;;;;28.30;32.75;99003.53;5013939;28;20069;-64
2022/07/15 10:24:46;;;;;;;2.20;0.60;;;;;;;28.27;33.18;99003.94;5014306;28;20538;-64
2022/07/15 10:27:54;;;;;;;1.27;0.60;;;;;;;27.17;33.53;99005.34;5004111;28;20517;-66
2022/07/15 10:30:42;;;;;;;0.60;0.40;;;;;;;28.17;32.76;99010.63;5012764;28;20050;-65
2022/07/15 10:33:29;;;;;;;1.40;0.70;;;;;;;29.15;30.08;99006.03;4999675;28;20049;-64
2022/07/15 10:36:15;;;;;;;1.77;0.68;;;;;;;28.75;33.66;99013.41;5012975;28;20046;-64
2022/07/15 10:39:03;;;;;;;1.50;0.45;;;;;;;28.20;32.80;99011.25;5014383;28;20046;-65
2022/07/15 10:42:04;;;;;;;1.77;0.52;;;;;;;28.65;33.60;98997.72;5020762;28;20100;-65
2022/07/15 10:45:00;;;;;;;2.38;0.40;;;;;;;29.43;29.80;99010.13;5003222;28;20484;-64
2022/07/15 10:47:44;;;;;;;1.65;0.55;;;;;;;29.50;30.02;99001.97;5013136;28;20121;-65
2022/07/15 10:50:40;;;;;;;2.15;0.47;;;;;;;30.46;30.58;99002.44;5013854;28;20054;-64
2022/07/15 10:53:27;;;;;;;1.17;0.40;;;;;;;29.77;27.58;98996.28;5004614;28;20121;-64
2022/07/15 10:56:36;;;;;;;2.63;0.50;;;;;;;28.12;30.80;99013.13;5012134;28;20715;-66
2022/07/15 10:59:24;;;;;;;1.20;0.70;;;;;;;26.84;33.81;99000.78;5013765;28;20517;-65
2022/07/15 11:02:14;;;;;;;2.10;0.70;;;;;;;29.33;30.15;99004.44;5015845;28;20064;-65
2022/07/15 11:05:20;;;;;;;0.65;0.50;;;;;;;30.29;30.59;99000.44;5013166;28;20453;-64
2022/07/15 11:08:43;;;;;;;1.50;0.63;;;;;;;28.69;28.98;99002.69;5012980;28;20129;-64
2022/07/15 11:11:29;;;;;;;2.47;0.60;;;;;;;29.96;29.33;98999.78;5006997;28;20061;-64
2022/07/15 11:14:42;;;;;;;1.65;0.50;;;;;;;30.84;32.78;98993.16;5012872;28;20049;-64
2022/07/15 11:17:33;;;;;;;1.35;0.40;;;;;;;31.64;28.06;98994.66;4999155;28;20056;-64
2022/07/15 11:20:31;;;;;;;1.98;0.40;;;;;;;31.42;27.48;98987.16;5012491;28;20486;-64
2022/07/15 11:23:17;;;;;;;4.53;0.80;;;;;;;29.58;30.60;98982.81;5012354;28;20055;-63
2022/07/15 11:26:02;;;;;;;1.65;0.60;;;;;;;28.32;29.76;99008.72;5013022;28;20450;-63
2022/07/15 11:28:55;;;;;;;2.03;0.50;;;;;;;28.36;27.86;98994.63;5011739;28;20174;-64
2022/07/15 11:31:42;;;;;;;1.35;0.50;;;;;;;29.27;31.52;98987.25;5013515;28;20085;-63
2022/07/15 11:34:43;;;;;;;1.58;0.40;;;;;;;30.07;30.47;98987.38;5002267;28;20438;-65
2022/07/15 11:37:34;;;;;;;1.05;0.57;;;;;;;28.98;28.01;99000.41;5012284;28;20042;-66
2022/07/15 11:46:30;;;;;;;1.25;0.70;;;;;;;29.73;28.96;98997.78;5010642;28;20072;-64
2022/07/15 11:49:33;;;;;;;2.75;0.70;;;;;;;29.23;26.93;99002.25;5014109;28;20111;-64
2022/07/15 11:52:24;;;;;;;2.80;0.88;;;;;;;27.10;30.00;99003.69;5012592;28;20042;-64
2022/07/15 11:55:10;;;;;;;1.73;0.60;;;;;;;28.29;27.77;98999.19;5008983;28;20478;-63
2022/07/15 11:57:56;;;;;;;1.85;0.52;;;;;;;28.64;29.45;99006.84;5004437;28;20463;-62
2022/07/15 12:00:47;;;;;;;1.40;0.80;;;;;;;28.88;27.62;98985.53;5018770;28;20046;-64
2022/07/15 12:03:34;;;;;;;2.30;0.40;;;;;;;28.38;27.42;99010.56;5012669;28;20117;-64
2022/07/15 12:06:24;;;;;;;1.58;0.60;;;;;;;28.52;33.54;99001.34;5012560;28;20053;-64
2022/07/15 12:09:08;;;;;;;2.42;0.70;;;;;;;27.61;30.22;99004.00;5012166;28;20046;-63
2022/07/15 12:11:53;;;;;;;2.08;0.63;;;;;;;28.22;27.49;99019.94;5011784;28;20052;-64
2022/07/15 12:14:38;;;;;;;0.93;0.50;;;;;;;29.06;37.47;99010.06;5011780;28;20045;-63
2022/07/15 12:17:23;;;;;;;1.90;0.52;;;;;;;29.97;30.91;99011.41;4999011;28;20482;-63
2022/07/15 12:20:09;;;;;;;2.05;0.70;;;;;;;28.57;28.43;99022.25;5011227;28;20104;-63
2022/07/15 12:23:07;;;;;;;2.05;0.68;;;;;;;29.37;26.46;99002.94;5012703;28;20046;-63
2022/07/15 12:26:07;;;;;;;1.92;0.47;;;;;;;28.80;26.92;99006.53;5012286;28;20049;-63
2022/07/15 12:28:55;;;;;;;2.60;0.90;;;;;;;28.58;27.92;99002.34;5010774;28;20076;-63
2022/07/15 12:31:43;;;;;;;2.15;0.90;;;;;;;28.39;28.16;99010.34;5012237;28;20513;-62
2022/07/15 12:34:48;;;;;;;2.38;0.80;;;;;;;27.37;28.24;99003.66;5001001;28;20038;-63
2022/07/15 12:37:35;;;;;;;15.73;0.80;;;;;;;28.16;31.00;99027.84;5011444;28;20046;-64
2022/07/15 12:40:23;;;;;;;2.50;0.60;;;;;;;27.72;30.23;99010.63;5011245;28;20050;-63
2022/07/15 12:43:09;;;;;;;1.00;0.60;;;;;;;28.23;27.18;99000.88;5011947;28;20042;-63
2022/07/15 12:45:53;;;;;;;1.48;0.60;;;;;;;29.11;26.95;98997.59;4996529;28;20046;-64
2022/07/15 12:48:45;;;;;;;1.77;0.60;;;;;;;29.06;26.72;99000.13;5024609;28;20410;-63
2022/07/15 12:51:30;;;;;;;2.70;0.77;;;;;;;28.09;26.37;99005.50;5000619;28;20494;-63
2022/07/15 12:54:18;;;;;;;1.13;0.60;;;;;;;28.51;28.46;98997.00;5023890;28;20042;-63
2022/07/15 12:57:03;;;;;;;2.83;0.60;;;;;;;29.42;28.75;98992.31;5010800;28;20042;-63
2022/07/15 12:59:56;;;;;;;1.45;0.63;;;;;;;28.20;27.11;98995.94;4998798;28;20113;-63
2022/07/15 13:03:01;;;;;;;1.35;0.73;;;;;;;28.58;30.75;98996.13;5011559;28;20046;-64
2022/07/15 13:05:51;;;;;;;1.67;0.60;;;;;;;29.32;30.11;98992.81;5023888;28;20100;-64
2022/07/15 13:08:38;;;;;;;2.88;0.75;;;;;;;28.86;29.88;98981.38;5010342;28;20060;-62
2022/07/15 13:11:24;;;;;;;1.73;0.70;;;;;;;27.54;27.27;98991.41;5015031;28;20057;-64
2022/07/15 13:14:10;;;;;;;2.15;0.60;;;;;;;28.75;26.48;98978.38;5004866;28;20449;-63
2022/07/15 13:16:54;;;;;;;1.75;0.52;;;;;;;29.67;28.54;98982.50;5028713;28;20042;-62
2022/07/15 13:19:39;;;;;;;1.88;0.63;;;;;;;29.27;27.50;98981.88;5014144;28;20049;-63